Time;durP1;ratioP1;P1;durP2;ratioP2;P2;SDS_P1;SDS_P2;PMS_P1;PMS_P2;Temp;Humidity;BMP_temperature;BMP_pressure;BME280_temperature;BME280_humidity;BME280_pressure;Samples;Min_cycle;Max_cycle;Signal;HPM_P1;HPM_P2
2023/12/05 00:00:15;;;;;;;16.50;12.50;;;5.00;90.00;;;;;;5050463;28;20474;-75
2023/12/05 00:02:40;;;;;;;16.97;13.27;;;5.10;90.70;;;;;;5051263;28;20385;-73
2023/12/05 00:05:06;;;;;;;15.93;13.00;;;5.10;91.40;;;;;;5051222;28;20493;-74
2023/12/05 00:07:33;;;;;;;18.25;13.52;;;5.00;91.80;;;;;;5051111;28;20480;-74
2023/12/05 00:09:59;;;;;;;14.23;11.73;;;5.10;90.40;;;;;;5050970;28;20468;-73
2023/12/05 00:12:25;;;;;;;19.17;14.07;;;5.00;90.40;;;;;;5050614;28;20396;-73
2023/12/05 00:14:51;;;;;;;17.33;12.77;;;5.00;93.70;;;;;;5051032;28;20872;-74
2023/12/05 00:17:16;;;;;;;15.63;12.30;;;5.10;94.80;;;;;;5051002;28;20848;-74
2023/12/05 00:19:42;;;;;;;16.70;13.20;;;5.10;93.00;;;;;;5051045;28;20421;-74
2023/12/05 00:22:07;;;;;;;16.37;13.33;;;5.00;93.30;;;;;;5051891;28;20377;-73
2023/12/05 00:24:33;;;;;;;16.00;12.70;;;5.00;93.00;;;;;;5051094;28;20378;-74
2023/12/05 00:26:58;;;;;;;15.90;12.27;;;5.00;93.30;;;;;;5051276;28;20385;-74
2023/12/05 00:29:24;;;;;;;13.53;11.33;;;5.10;92.70;;;;;;5050344;28;20385;-74
2023/12/05 00:31:49;;;;;;;15.40;12.60;;;5.20;91.50;;;;;;5050046;28;20373;-74
2023/12/05 00:34:15;;;;;;;13.90;11.97;;;5.10;88.70;;;;;;5032495;28;20781;-73
2023/12/05 00:36:40;;;;;;;14.23;12.10;;;5.10;90.20;;;;;;5050149;28;20890;-75
2023/12/05 00:39:06;;;;;;;15.50;12.73;;;5.00;91.20;;;;;;5050354;28;20476;-74
2023/12/05 00:41:31;;;;;;;15.67;12.70;;;5.00;94.10;;;;;;5053259;28;20397;-75
2023/12/05 00:43:57;;;;;;;16.80;12.80;;;5.00;92.80;;;;;;5053768;28;20487;-73
2023/12/05 00:46:22;;;;;;;16.27;12.80;;;5.10;89.30;;;;;;5053662;28;20382;-74
2023/12/05 00:48:48;;;;;;;16.77;13.05;;;5.00;91.20;;;;;;5053681;28;20403;-74
2023/12/05 00:51:14;;;;;;;15.63;12.37;;;5.10;90.50;;;;;;5053758;28;20415;-74
2023/12/05 00:53:40;;;;;;;14.93;12.57;;;5.10;87.40;;;;;;5053503;28;20956;-75
2023/12/05 00:56:10;;;;;;;16.30;13.27;;;5.10;89.00;;;;;;5053994;28;20405;-76
2023/12/05 00:58:36;;;;;;;16.13;12.48;;;5.10;90.70;;;;;;5053655;28;20417;-73
2023/12/05 01:01:02;;;;;;;15.13;12.07;;;5.20;86.40;;;;;;5053661;28;20849;-73
2023/12/05 01:03:28;;;;;;;17.88;12.98;;;5.20;85.40;;;;;;5053909;28;20389;-75
2023/12/05 01:05:53;;;;;;;16.08;12.45;;;5.20;88.50;;;;;;5053903;28;20374;-74
2023/12/05 01:08:19;;;;;;;15.85;12.70;;;5.20;89.20;;;;;;5054049;28;20809;-75
2023/12/05 01:10:45;;;;;;;14.90;12.88;;;5.20;88.00;;;;;;5053593;28;20385;-75
2023/12/05 01:13:10;;;;;;;15.13;12.70;;;5.20;88.00;;;;;;5053335;28;20437;-74
2023/12/05 01:15:36;;;;;;;15.00;12.23;;;5.30;89.70;;;;;;5053186;28;20389;-74
2023/12/05 01:18:02;;;;;;;16.20;12.73;;;5.30;89.90;;;;;;5053351;28;20405;-74
2023/12/05 01:20:28;;;;;;;15.32;12.50;;;5.20;91.50;;;;;;5053727;28;20377;-75
2023/12/05 01:22:54;;;;;;;16.90;13.33;;;5.20;90.90;;;;;;5053436;28;20390;-74
2023/12/05 01:25:19;;;;;;;17.97;14.27;;;5.20;91.30;;;;;;5053882;28;20388;-76
2023/12/05 01:27:45;;;;;;;15.07;12.10;;;5.30;93.70;;;;;;5053088;28;20476;-74
2023/12/05 01:30:11;;;;;;;16.00;12.80;;;5.30;90.60;;;;;;5052988;28;20382;-74
2023/12/05 01:32:36;;;;;;;17.50;13.05;;;5.30;91.40;;;;;;5052843;28;20498;-75
2023/12/05 01:35:02;;;;;;;17.30;12.73;;;5.30;92.50;;;;;;5053165;28;20389;-75
2023/12/05 01:37:28;;;;;;;15.18;12.48;;;5.30;92.20;;;;;;5053212;28;20464;-75
2023/12/05 01:39:53;;;;;;;15.70;12.33;;;5.30;92.40;;;;;;5052810;28;20424;-74
2023/12/05 01:42:19;;;;;;;16.13;12.77;;;5.30;90.00;;;;;;5053003;28;20876;-75
2023/12/05 01:44:44;;;;;;;17.53;13.47;;;5.30;92.20;;;;;;5052818;28;20434;-74
2023/12/05 01:47:11;;;;;;;15.87;12.97;;;5.30;90.10;;;;;;5052896;28;20428;-75
2023/12/05 01:49:37;;;;;;;16.58;13.30;;;5.20;92.10;;;;;;5053124;28;20427;-75
2023/12/05 01:52:03;;;;;;;15.77;12.80;;;5.30;90.70;;;;;;5052366;28;20385;-73
2023/12/05 01:54:31;;;;;;;15.13;12.40;;;5.30;89.90;;;;;;5052725;28;20940;-73
2023/12/05 01:56:57;;;;;;;15.93;12.27;;;5.30;88.50;;;;;;5052561;28;20385;-73
2023/12/05 01:59:24;;;;;;;15.90;12.43;;;5.40;90.30;;;;;;5052717;28;20401;-75
2023/12/05 02:01:51;;;;;;;15.50;12.23;;;5.50;87.80;;;;;;5034982;28;20963;-75
2023/12/05 02:04:18;;;;;;;16.00;12.27;;;5.40;89.10;;;;;;5052998;28;20408;-74
2023/12/05 02:06:44;;;;;;;15.35;12.35;;;5.40;86.20;;;;;;5053430;28;20950;-75
2023/12/05 02:09:12;;;;;;;14.40;11.80;;;5.30;89.00;;;;;;5053087;28;20511;-74
2023/12/05 02:11:38;;;;;;;15.73;12.25;;;5.40;90.70;;;;;;5052393;28;20381;-75
2023/12/05 02:14:06;;;;;;;15.63;12.53;;;5.50;88.20;;;;;;5052960;28;20937;-75
2023/12/05 02:16:45;;;;;;;15.50;11.90;;;5.50;89.20;;;;;;5052763;28;20419;-75
2023/12/05 02:19:55;;;;;;;15.70;12.60;;;5.50;88.70;;;;;;5052600;28;20794;-74
2023/12/05 02:22:56;;;;;;;16.27;11.93;;;5.40;90.20;;;;;;5052646;28;20498;-72
2023/12/05 02:25:37;;;;;;;16.60;12.27;;;5.40;92.20;;;;;;5063395;28;20369;-74
2023/12/05 02:28:04;;;;;;;15.48;12.25;;;5.40;92.60;;;;;;5068261;28;20601;-75
2023/12/05 02:30:29;;;;;;;16.45;12.98;;;5.50;94.40;;;;;;5069522;28;20391;-75
2023/12/05 02:32:55;;;;;;;14.65;11.77;;;5.50;93.30;;;;;;5052276;28;20468;-75
2023/12/05 02:35:21;;;;;;;16.00;12.60;;;5.50;91.30;;;;;;5052080;28;20397;-74
2023/12/05 02:37:51;;;;;;;13.90;11.80;;;5.50;93.70;;;;;;5051610;28;20393;-74
2023/12/05 02:40:28;;;;;;;15.77;11.77;;;5.50;94.60;;;;;;5052044;28;20412;-74
2023/12/05 02:42:56;;;;;;;15.55;12.70;;;5.50;94.40;;;;;;5051680;28;20382;-74
2023/12/05 02:45:28;;;;;;;16.17;12.30;;;5.50;94.00;;;;;;5051607;28;20432;-75
2023/12/05 02:47:55;;;;;;;15.15;11.80;;;5.50;95.50;;;;;;5051854;28;20396;-74
2023/12/05 02:50:21;;;;;;;15.48;12.10;;;5.50;95.70;;;;;;5033913;28;20902;-75
2023/12/05 02:52:47;;;;;;;16.25;12.45;;;5.50;97.00;;;;;;5051597;28;20381;-74
2023/12/05 02:55:12;;;;;;;16.60;12.73;;;5.50;98.60;;;;;;5051582;28;20389;-75
2023/12/05 02:57:38;;;;;;;17.03;12.90;;;5.50;99.30;;;;;;5051612;28;20532;-74
2023/12/05 03:00:05;;;;;;;14.82;12.90;;;5.60;99.90;;;;;;5051794;28;20389;-74
2023/12/05 03:02:30;;;;;;;15.30;12.90;;;5.50;98.90;;;;;;5051170;28;20374;-73
2023/12/05 03:04:56;;;;;;;15.70;12.30;;;5.50;99.90;;;;;;5051367;28;20801;-73
2023/12/05 03:07:21;;;;;;;14.68;12.10;;;5.60;99.60;;;;;;5051120;28;20385;-74
2023/12/05 03:09:47;;;;;;;14.55;11.70;;;5.50;99.90;;;;;;5051347;28;20439;-76
2023/12/05 03:12:13;;;;;;;11.60;10.40;;;5.60;99.80;;;;;;5050979;28;20535;-74
2023/12/05 03:14:38;;;;;;;13.88;10.90;;;5.70;99.90;;;;;;5051147;28;20416;-74
2023/12/05 03:17:04;;;;;;;13.88;10.75;;;5.70;98.30;;;;;;5051099;28;20377;-73
2023/12/05 03:19:29;;;;;;;12.55;10.77;;;5.60;99.90;;;;;;5051143;28;20401;-75
2023/12/05 03:21:55;;;;;;;12.25;10.32;;;5.70;99.00;;;;;;5050840;28;20384;-76
2023/12/05 03:24:21;;;;;;;13.63;10.50;;;5.80;99.90;;;;;;5051192;28;20894;-75
2023/12/05 03:26:46;;;;;;;11.50;9.15;;;5.80;98.90;;;;;;5051283;28;20563;-74
2023/12/05 03:29:12;;;;;;;12.00;9.90;;;5.90;95.40;;;;;;5050980;28;20425;-75
2023/12/05 03:31:39;;;;;;;12.80;10.30;;;5.90;95.40;;;;;;5032995;28;20773;-75
2023/12/05 03:34:06;;;;;;;12.70;10.10;;;5.80;94.40;;;;;;5051224;28;20404;-76
2023/12/05 03:36:31;;;;;;;11.88;10.10;;;5.80;97.00;;;;;;5051991;28;20386;-75
2023/12/05 03:38:57;;;;;;;12.70;10.30;;;5.70;95.40;;;;;;5051859;28;20761;-74
2023/12/05 03:41:23;;;;;;;13.45;10.45;;;5.70;98.00;;;;;;5051432;28;20471;-73
2023/12/05 03:43:48;;;;;;;11.90;10.10;;;5.80;97.10;;;;;;5057183;28;20955;-73
2023/12/05 03:46:14;;;;;;;12.50;10.33;;;5.70;95.70;;;;;;5058252;28;20392;-76
2023/12/05 03:48:39;;;;;;;12.37;10.10;;;5.70;97.30;;;;;;5056278;28;20654;-74
2023/12/05 03:51:05;;;;;;;14.37;10.10;;;5.80;98.00;;;;;;5057190;28;20388;-74
2023/12/05 03:53:31;;;;;;;12.10;10.20;;;5.80;96.10;;;;;;5038715;28;20393;-75
2023/12/05 03:55:56;;;;;;;12.00;9.80;;;5.80;95.40;;;;;;5056389;28;20438;-74
2023/12/05 03:58:22;;;;;;;11.65;10.07;;;5.80;93.60;;;;;;5055006;28;20867;-74
2023/12/05 04:00:47;;;;;;;12.80;10.10;;;5.70;93.10;;;;;;5054156;28;20843;-75
2023/12/05 04:03:14;;;;;;;10.43;8.90;;;5.70;94.90;;;;;;5051759;28;20389;-73
2023/12/05 04:05:40;;;;;;;10.57;9.23;;;5.70;94.80;;;;;;5051056;28;20381;-74
2023/12/05 04:08:06;;;;;;;12.10;10.03;;;5.80;94.50;;;;;;5050986;28;20462;-75
2023/12/05 04:10:31;;;;;;;11.23;9.80;;;5.80;97.20;;;;;;5050966;28;20435;-73
2023/12/05 04:12:57;;;;;;;13.73;10.30;;;5.80;96.70;;;;;;5050430;28;20404;-72
2023/12/05 04:15:22;;;;;;;12.17;10.40;;;5.90;95.90;;;;;;5054392;28;20424;-74
2023/12/05 04:17:48;;;;;;;12.80;10.40;;;5.90;97.50;;;;;;5054794;28;20606;-74
2023/12/05 04:20:14;;;;;;;12.50;10.47;;;5.90;97.10;;;;;;5055196;28;20384;-74
2023/12/05 04:22:39;;;;;;;12.80;10.33;;;5.90;97.90;;;;;;5055518;28;20377;-74
2023/12/05 04:25:05;;;;;;;11.63;9.73;;;5.90;97.60;;;;;;5055460;28;20477;-75
2023/12/05 04:27:31;;;;;;;11.90;10.32;;;6.00;98.20;;;;;;5056108;28;20451;-74
2023/12/05 04:29:57;;;;;;;14.13;11.00;;;6.00;98.80;;;;;;5056220;28;20389;-74
2023/12/05 04:32:22;;;;;;;11.90;9.83;;;6.00;99.90;;;;;;5059089;28;20736;-75
2023/12/05 04:34:48;;;;;;;15.30;10.90;;;6.00;99.00;;;;;;5055931;28;20421;-75
2023/12/05 04:37:14;;;;;;;14.10;10.30;;;6.10;99.50;;;;;;5055885;28;20392;-75
2023/12/05 04:39:40;;;;;;;11.40;9.80;;;6.10;98.00;;;;;;5055182;28;20386;-74
2023/12/05 04:42:06;;;;;;;13.30;10.68;;;6.00;98.70;;;;;;5056227;28;20795;-76
2023/12/05 04:44:31;;;;;;;12.50;10.40;;;6.00;99.90;;;;;;5055230;28;20388;-74
2023/12/05 04:46:57;;;;;;;12.25;10.00;;;6.20;99.80;;;;;;5054965;28;20713;-75
2023/12/05 04:49:23;;;;;;;12.45;9.88;;;6.10;99.40;;;;;;5055237;28;20459;-76
2023/12/05 04:51:49;;;;;;;13.30;10.82;;;6.30;99.00;;;;;;5054982;28;20385;-75
2023/12/05 04:54:14;;;;;;;13.57;10.43;;;6.20;97.60;;;;;;5054627;28;20390;-74
2023/12/05 04:56:41;;;;;;;13.40;9.70;;;6.10;99.40;;;;;;5055489;28;20385;-74
2023/12/05 04:59:06;;;;;;;14.88;10.93;;;6.10;99.90;;;;;;5056603;28;20814;-75
2023/12/05 05:01:32;;;;;;;11.83;9.67;;;6.10;99.90;;;;;;5054132;28;20382;-74
2023/12/05 05:03:58;;;;;;;12.40;10.10;;;6.10;99.90;;;;;;5054961;28;20378;-73
2023/12/05 05:06:23;;;;;;;13.43;10.17;;;6.20;99.90;;;;;;5055228;28;20429;-73
2023/12/05 05:08:49;;;;;;;12.03;9.60;;;6.20;99.90;;;;;;5055594;28;20382;-75
2023/12/05 05:11:14;;;;;;;13.77;9.63;;;6.20;99.90;;;;;;5055120;28;20389;-74
2023/12/05 05:13:40;;;;;;;13.63;9.77;;;6.20;99.90;;;;;;5057366;28;20412;-74
2023/12/05 05:16:10;;;;;;;12.87;9.50;;;6.20;99.90;;;;;;5039115;28;20393;-75
2023/12/05 05:18:37;;;;;;;13.05;9.35;;;6.30;99.90;;;;;;5057046;28;20412;-74
2023/12/05 05:21:06;;;;;;;12.70;9.68;;;6.30;99.90;;;;;;5056069;28;20787;-74
2023/12/05 05:23:33;;;;;;;10.63;9.27;;;6.30;99.90;;;;;;5053938;28;20436;-75
2023/12/05 05:25:59;;;;;;;13.20;9.43;;;6.30;99.90;;;;;;5053790;28;20686;-75
2023/12/05 05:28:25;;;;;;;10.77;8.60;;;6.40;99.90;;;;;;5055442;28;20401;-74
2023/12/05 05:30:54;;;;;;;11.00;9.48;;;6.30;99.90;;;;;;5053998;28;20386;-75
2023/12/05 05:33:20;;;;;;;11.17;9.20;;;6.40;99.90;;;;;;5053797;28;20378;-74
2023/12/05 05:35:46;;;;;;;12.98;9.65;;;6.30;99.90;;;;;;5053848;28;20397;-75
2023/12/05 05:38:12;;;;;;;11.50;9.33;;;6.30;99.90;;;;;;5053245;28;20909;-75
2023/12/05 05:40:38;;;;;;;12.13;8.90;;;6.30;99.90;;;;;;5035526;28;20385;-75
2023/12/05 05:43:03;;;;;;;13.30;9.48;;;6.40;99.90;;;;;;5053470;28;20377;-75
2023/12/05 05:45:29;;;;;;;11.80;9.15;;;6.40;99.90;;;;;;5053984;28;20384;-75
2023/12/05 05:47:55;;;;;;;12.43;9.20;;;6.40;99.90;;;;;;5053918;28;20389;-73
2023/12/05 05:50:21;;;;;;;12.32;9.50;;;6.50;99.90;;;;;;5061910;28;20385;-73
2023/12/05 05:52:46;;;;;;;13.82;9.35;;;6.50;99.90;;;;;;5072106;28;20461;-76
2023/12/05 05:55:12;;;;;;;13.57;9.73;;;7.00;99.90;;;;;;5069078;28;20856;-75
2023/12/05 05:57:38;;;;;;;12.15;9.35;;;6.50;99.90;;;;;;5055075;28;20409;-75
2023/12/05 06:00:04;;;;;;;11.77;9.43;;;6.50;99.90;;;;;;5053659;28;20470;-75
2023/12/05 06:02:29;;;;;;;12.07;10.00;;;6.40;99.90;;;;;;5053693;28;20752;-74
2023/12/05 06:04:55;;;;;;;13.60;9.80;;;6.40;99.90;;;;;;5052890;28;20370;-75
2023/12/05 06:07:22;;;;;;;14.80;9.77;;;6.40;99.90;;;;;;5038893;28;20394;-76
2023/12/05 06:09:48;;;;;;;12.50;9.40;;;6.40;99.90;;;;;;5059907;28;20389;-75
2023/12/05 06:12:13;;;;;;;12.45;9.40;;;6.50;99.90;;;;;;5059484;28;20811;-75
2023/12/05 06:14:39;;;;;;;13.20;9.60;;;6.50;99.90;;;;;;5054325;28;20386;-74
2023/12/05 06:17:05;;;;;;;12.85;9.93;;;6.50;99.90;;;;;;5037068;28;20387;-76
2023/12/05 06:19:30;;;;;;;12.77;9.45;;;6.50;99.90;;;;;;5053125;28;20627;-75
2023/12/05 06:21:56;;;;;;;14.00;9.02;;;6.50;99.90;;;;;;5035125;28;20888;-75
2023/12/05 06:24:21;;;;;;;11.02;9.27;;;6.60;99.90;;;;;;5052873;28;20384;-74
2023/12/05 06:26:47;;;;;;;12.70;8.90;;;6.60;99.90;;;;;;5053218;28;20389;-75
2023/12/05 06:29:12;;;;;;;10.88;9.20;;;6.60;99.90;;;;;;5052605;28;20389;-76
2023/12/05 06:31:38;;;;;;;10.57;9.00;;;6.60;99.90;;;;;;5052411;28;20385;-74
2023/12/05 06:34:04;;;;;;;13.18;9.15;;;6.60;99.90;;;;;;5052640;28;20381;-75
2023/12/05 06:36:30;;;;;;;12.00;8.60;;;6.60;99.90;;;;;;5052826;28;20740;-75
2023/12/05 06:38:56;;;;;;;13.52;8.70;;;6.70;99.90;;;;;;5051548;28;20405;-75
2023/12/05 06:41:21;;;;;;;13.57;8.05;;;6.60;99.90;;;;;;5051751;28;20887;-75
2023/12/05 06:43:47;;;;;;;10.60;8.33;;;6.70;99.90;;;;;;5052078;28;20393;-75
2023/12/05 06:46:12;;;;;;;10.77;8.50;;;6.80;99.90;;;;;;5052037;28;20721;-74
2023/12/05 06:48:38;;;;;;;11.90;8.27;;;6.80;99.90;;;;;;5052865;28;20874;-74
2023/12/05 06:51:04;;;;;;;12.55;8.77;;;6.70;99.90;;;;;;5052511;28;20431;-75
2023/12/05 06:53:29;;;;;;;13.70;8.52;;;6.80;99.90;;;;;;5052019;28;20756;-75
2023/12/05 06:55:55;;;;;;;12.77;8.40;;;6.90;99.90;;;;;;5054660;28;20408;-75
2023/12/05 06:58:22;;;;;;;11.07;8.45;;;6.80;99.90;;;;;;5052778;28;20772;-74
2023/12/05 07:00:48;;;;;;;14.45;8.80;;;6.70;99.90;;;;;;5051925;28;20392;-76
2023/12/05 07:03:13;;;;;;;13.23;8.90;;;6.80;99.90;;;;;;5051665;28;20809;-74
2023/12/05 07:05:39;;;;;;;12.03;8.80;;;6.80;99.90;;;;;;5052349;28;20469;-77
2023/12/05 07:08:06;;;;;;;13.13;8.80;;;6.90;99.90;;;;;;5052061;28;20393;-76
2023/12/05 07:10:32;;;;;;;13.02;7.97;;;6.90;99.90;;;;;;5046988;28;20397;-75
2023/12/05 07:12:58;;;;;;;19.92;10.40;;;6.90;99.90;;;;;;5021483;28;20460;-75
2023/12/05 07:15:23;;;;;;;12.55;8.63;;;6.90;99.90;;;;;;5032772;28;20387;-76
2023/12/05 07:17:49;;;;;;;12.48;9.20;;;7.00;99.90;;;;;;5037935;28;20404;-76
2023/12/05 07:20:15;;;;;;;13.32;9.35;;;7.00;99.90;;;;;;5052276;28;20393;-77
2023/12/05 07:22:42;;;;;;;12.60;9.73;;;7.10;99.90;;;;;;5048717;28;20421;-78
2023/12/05 07:25:08;;;;;;;12.50;9.02;;;7.10;98.80;;;;;;5054576;28;20805;-77
2023/12/05 07:27:34;;;;;;;15.07;9.80;;;7.00;99.80;;;;;;5035233;28;20388;-78
2023/12/05 07:30:00;;;;;;;15.95;9.63;;;7.00;99.90;;;;;;5050263;28;20414;-79
2023/12/05 07:32:26;;;;;;;15.32;10.23;;;7.10;99.90;;;;;;5057009;28;20435;-78
2023/12/05 07:34:52;;;;;;;16.58;10.18;;;7.10;98.70;;;;;;5032607;28;20395;-78
2023/12/05 07:37:18;;;;;;;12.98;9.60;;;7.10;99.70;;;;;;5047345;28;20389;-77
2023/12/05 07:39:43;;;;;;;14.37;9.83;;;7.10;99.30;;;;;;5044638;28;20468;-77
2023/12/05 07:42:09;;;;;;;13.25;9.90;;;7.10;98.40;;;;;;5052641;28;20389;-77
2023/12/05 07:44:34;;;;;;;15.70;11.00;;;7.40;99.90;;;;;;5052747;28;20458;-72
2023/12/05 07:47:00;;;;;;;16.30;11.00;;;7.10;99.50;;;;;;5050269;28;20397;-76
2023/12/05 07:49:26;;;;;;;13.60;10.40;;;7.20;99.80;;;;;;5050482;28;20465;-74
2023/12/05 07:51:51;;;;;;;17.37;10.77;;;7.20;99.60;;;;;;5041475;28;20402;-73
2023/12/05 07:54:17;;;;;;;16.90;10.93;;;7.20;99.60;;;;;;5032460;28;20403;-75
2023/12/05 07:56:42;;;;;;;13.93;10.43;;;7.20;99.00;;;;;;5035861;28;20520;-77
2023/12/05 07:59:10;;;;;;;18.17;10.60;;;7.30;99.00;;;;;;5049912;28;20433;-75
2023/12/05 08:01:35;;;;;;;15.00;10.13;;;7.30;99.90;;;;;;5052321;28;20393;-75
2023/12/05 08:04:02;;;;;;;14.63;9.67;;;7.40;99.30;;;;;;5051676;28;20443;-75
2023/12/05 08:06:27;;;;;;;14.05;9.95;;;7.30;99.00;;;;;;5052282;28;20387;-74
2023/12/05 08:08:53;;;;;;;13.02;9.30;;;7.40;99.70;;;;;;5051393;28;20381;-77
2023/12/05 08:11:20;;;;;;;13.25;9.00;;;7.50;95.20;;;;;;5051565;28;20742;-75
2023/12/05 08:13:47;;;;;;;12.67;8.80;;;7.60;94.00;;;;;;5051783;28;20547;-74
2023/12/05 08:16:13;;;;;;;11.98;8.50;;;7.60;92.90;;;;;;5052159;28;20805;-76
2023/12/05 08:18:38;;;;;;;15.48;10.10;;;7.60;93.20;;;;;;5052127;28;20535;-75
2023/12/05 08:21:05;;;;;;;12.63;9.25;;;7.70;94.60;;;;;;5051346;28;20385;-76
2023/12/05 08:23:30;;;;;;;13.20;8.95;;;7.70;91.40;;;;;;5051143;28;20888;-76
2023/12/05 08:25:56;;;;;;;15.32;8.80;;;7.60;93.30;;;;;;5050914;28;20472;-75
2023/12/05 08:28:22;;;;;;;13.68;8.40;;;7.60;93.70;;;;;;5051125;28;20387;-75
2023/12/05 08:30:47;;;;;;;12.67;9.30;;;7.70;92.80;;;;;;5050827;28;20432;-75
2023/12/05 08:33:14;;;;;;;12.23;8.07;;;7.70;96.50;;;;;;5033737;28;20967;-75
2023/12/05 08:35:39;;;;;;;10.83;8.17;;;7.70;95.00;;;;;;5051709;28;20879;-77
2023/12/05 08:38:05;;;;;;;10.37;7.40;;;7.80;92.90;;;;;;5051199;28;20435;-75
2023/12/05 08:40:30;;;;;;;9.30;7.13;;;7.80;91.40;;;;;;5051235;28;20382;-74
2023/12/05 08:42:56;;;;;;;11.93;7.47;;;7.90;92.30;;;;;;5051115;28;20403;-75
2023/12/05 08:45:21;;;;;;;9.70;7.53;;;7.90;91.20;;;;;;5051569;28;20438;-75
2023/12/05 08:47:52;;;;;;;13.80;7.00;;;7.90;90.90;;;;;;5051250;28;20386;-76
2023/12/05 08:50:18;;;;;;;12.60;7.50;;;7.90;91.20;;;;;;5052965;28;20389;-75
2023/12/05 08:52:44;;;;;;;8.00;6.50;;;8.00;90.20;;;;;;5033001;28;20519;-75
2023/12/05 08:55:10;;;;;;;9.02;6.60;;;8.00;91.00;;;;;;5052709;28;20393;-75
2023/12/05 08:57:36;;;;;;;8.50;6.40;;;8.00;91.30;;;;;;5050536;28;20937;-74
2023/12/05 09:00:05;;;;;;;10.25;6.97;;;8.00;91.30;;;;;;5051178;28;20385;-74
2023/12/05 09:02:31;;;;;;;9.38;6.53;;;7.90;91.90;;;;;;5036615;28;20409;-75
2023/12/05 09:04:58;;;;;;;9.30;6.40;;;8.00;92.90;;;;;;5054181;28;20382;-75
2023/12/05 09:07:23;;;;;;;9.23;6.50;;;8.10;89.70;;;;;;5054911;28;20705;-75
2023/12/05 09:09:49;;;;;;;12.70;6.97;;;8.10;90.40;;;;;;5054016;28;20431;-75
2023/12/05 09:12:15;;;;;;;10.00;6.33;;;8.10;91.00;;;;;;5054136;28;20409;-74
2023/12/05 09:14:42;;;;;;;8.70;6.20;;;8.10;91.50;;;;;;5054471;28;20392;-75
2023/12/05 09:17:09;;;;;;;8.20;6.28;;;8.10;90.40;;;;;;5055728;28;20385;-76
2023/12/05 09:19:35;;;;;;;10.35;6.70;;;8.20;89.70;;;;;;5055215;28;20413;-74
2023/12/05 09:22:01;;;;;;;9.77;6.18;;;8.10;92.70;;;;;;5055286;28;20393;-76
2023/12/05 09:24:26;;;;;;;8.30;6.00;;;8.20;90.70;;;;;;5055757;28;20377;-75
2023/12/05 09:26:52;;;;;;;9.10;6.00;;;8.20;90.10;;;;;;5056577;28;20390;-75
2023/12/05 09:29:18;;;;;;;12.32;6.85;;;8.20;91.40;;;;;;5068057;28;20385;-74
2023/12/05 09:31:43;;;;;;;10.32;6.35;;;8.20;92.40;;;;;;5066622;28;20393;-76
2023/12/05 09:34:09;;;;;;;9.80;5.53;;;8.20;91.20;;;;;;5063964;28;20443;-75
2023/12/05 09:36:35;;;;;;;8.10;5.90;;;8.30;89.20;;;;;;5035565;28;20393;-74
2023/12/05 09:39:00;;;;;;;9.17;5.80;;;8.30;88.30;;;;;;5053111;28;20421;-74
2023/12/05 09:41:27;;;;;;;7.63;5.90;;;8.30;86.00;;;;;;5053077;28;20437;-76
2023/12/05 09:43:54;;;;;;;8.70;6.13;;;8.40;87.00;;;;;;5059005;28;20389;-74
2023/12/05 09:46:25;;;;;;;9.48;6.53;;;8.30;87.80;;;;;;5054003;28;20472;-75
2023/12/05 09:48:57;;;;;;;7.80;5.75;;;8.30;90.00;;;;;;5053475;28;20899;-75
2023/12/05 09:51:23;;;;;;;9.13;6.03;;;8.50;86.20;;;;;;5053639;28;20832;-74
2023/12/05 09:53:50;;;;;;;11.67;5.33;;;8.40;86.90;;;;;;5052992;28;20409;-76
2023/12/05 09:56:18;;;;;;;8.35;5.65;;;8.40;87.00;;;;;;5053389;28;20464;-75
2023/12/05 09:58:44;;;;;;;9.65;6.13;;;8.60;86.30;;;;;;5056887;28;20401;-73
2023/12/05 10:01:15;;;;;;;11.93;5.30;;;8.50;84.90;;;;;;5057234;28;20775;-76
2023/12/05 10:03:41;;;;;;;10.20;5.80;;;8.60;84.80;;;;;;5054428;28;20409;-75
2023/12/05 10:06:09;;;;;;;9.32;5.85;;;8.60;85.70;;;;;;5052943;28;20783;-74
2023/12/05 10:08:35;;;;;;;9.30;5.80;;;8.70;83.30;;;;;;5054326;28;20409;-76
2023/12/05 10:11:01;;;;;;;7.80;5.97;;;8.70;83.60;;;;;;5052918;28;20480;-76
2023/12/05 10:13:28;;;;;;;10.73;6.47;;;8.70;84.90;;;;;;5052455;28;20795;-74
2023/12/05 10:15:55;;;;;;;11.13;6.40;;;8.70;85.50;;;;;;5053183;28;20390;-76
2023/12/05 10:18:22;;;;;;;8.98;6.10;;;8.70;87.60;;;;;;5052689;28;20414;-75
2023/12/05 10:20:47;;;;;;;11.82;6.78;;;8.70;86.80;;;;;;5052430;28;20389;-75
2023/12/05 10:23:13;;;;;;;10.20;6.03;;;8.70;87.90;;;;;;5053006;28;20382;-78
2023/12/05 10:25:42;;;;;;;8.23;5.60;;;8.80;86.90;;;;;;5053355;28;20880;-74
2023/12/05 10:28:08;;;;;;;8.95;5.65;;;8.80;86.40;;;;;;5052923;28;20463;-75
2023/12/05 10:30:37;;;;;;;7.22;5.00;;;8.80;86.40;;;;;;5053025;28;20464;-77
2023/12/05 10:33:10;;;;;;;11.32;6.30;;;8.80;87.00;;;;;;5052843;28;20393;-73
2023/12/05 10:35:36;;;;;;;7.50;5.33;;;8.80;86.20;;;;;;5052807;28;20916;-75
2023/12/05 10:38:11;;;;;;;9.20;5.25;;;8.70;86.40;;;;;;5052349;28;20535;-75
2023/12/05 10:40:49;;;;;;;8.15;5.40;;;8.80;86.80;;;;;;5052698;28;20749;-75
2023/12/05 10:43:16;;;;;;;8.70;5.40;;;8.80;86.80;;;;;;5052558;28;20385;-75
2023/12/05 10:45:41;;;;;;;12.43;5.10;;;8.80;85.60;;;;;;5052307;28;20378;-74
2023/12/05 10:48:07;;;;;;;7.80;5.40;;;8.80;85.40;;;;;;5054424;28;20386;-76
2023/12/05 10:50:33;;;;;;;7.18;5.63;;;8.80;86.60;;;;;;5054133;28;20385;-74
2023/12/05 10:53:01;;;;;;;7.00;5.37;;;8.80;86.10;;;;;;5053554;28;20949;-76
2023/12/05 10:55:27;;;;;;;6.43;4.43;;;8.80;86.00;;;;;;5053291;28;20389;-76
2023/12/05 10:57:53;;;;;;;9.00;5.63;;;8.90;84.50;;;;;;5056035;28;20405;-75
2023/12/05 11:00:19;;;;;;;11.52;5.25;;;8.90;84.80;;;;;;5038827;28;20880;-74
2023/12/05 11:02:48;;;;;;;9.02;4.72;;;8.90;84.60;;;;;;5057004;28;20419;-74
2023/12/05 11:05:14;;;;;;;7.80;4.80;;;8.80;83.70;;;;;;5054653;28;20377;-75
2023/12/05 11:07:40;;;;;;;7.35;4.50;;;8.90;81.50;;;;;;5052249;28;20380;-75
2023/12/05 11:10:07;;;;;;;6.40;4.60;;;8.90;81.50;;;;;;5034644;28;20468;-77
2023/12/05 11:12:36;;;;;;;6.75;4.32;;;8.90;82.40;;;;;;5055199;28;20394;-75
2023/12/05 11:15:03;;;;;;;7.60;4.00;;;8.80;83.50;;;;;;5056205;28;21060;-74
2023/12/05 11:17:35;;;;;;;8.77;5.07;;;8.80;84.30;;;;;;5052480;28;20386;-75
2023/12/05 11:20:19;;;;;;;7.18;4.75;;;8.80;83.70;;;;;;5034124;28;20760;-75
2023/12/05 11:23:03;;;;;;;5.95;4.30;;;8.70;85.90;;;;;;5051673;28;20393;-75
2023/12/05 11:25:58;;;;;;;7.07;4.35;;;8.70;85.40;;;;;;5050853;28;20462;-75
2023/12/05 11:28:53;;;;;;;6.63;4.97;;;8.70;86.30;;;;;;5032585;28;20410;-76
2023/12/05 11:31:48;;;;;;;5.30;4.00;;;8.80;86.40;;;;;;5051996;28;20397;-75
2023/12/05 11:34:23;;;;;;;5.90;4.63;;;8.80;85.00;;;;;;5051232;28;20779;-75
2023/12/05 11:37:04;;;;;;;6.85;3.72;;;8.80;86.30;;;;;;5050897;28;20381;-75
2023/12/05 11:39:30;;;;;;;7.53;4.00;;;8.90;83.90;;;;;;5050896;28;20530;-75
2023/12/05 11:42:09;;;;;;;8.23;4.00;;;8.90;82.40;;;;;;5051103;28;20768;-75
2023/12/05 11:44:38;;;;;;;6.40;4.30;;;8.80;84.10;;;;;;5051676;28;20394;-74
2023/12/05 11:47:28;;;;;;;5.80;4.50;;;8.70;86.00;;;;;;5051178;28;20447;-76
2023/12/05 11:49:59;;;;;;;6.32;4.40;;;8.70;87.30;;;;;;5050999;28;20786;-76
2023/12/05 11:52:37;;;;;;;6.40;4.40;;;8.90;85.90;;;;;;5050778;28;20403;-76
2023/12/05 11:55:04;;;;;;;6.65;4.53;;;8.80;87.00;;;;;;5051066;28;20412;-74
2023/12/05 11:57:32;;;;;;;6.28;4.50;;;8.80;88.30;;;;;;5050873;28;20393;-75
2023/12/05 11:59:58;;;;;;;6.55;4.20;;;8.70;90.70;;;;;;5052004;28;20393;-75
2023/12/05 12:02:32;;;;;;;6.90;4.27;;;8.70;90.90;;;;;;5050608;28;20389;-74
2023/12/05 12:05:03;;;;;;;5.88;4.35;;;8.70;91.10;;;;;;5061537;28;20401;-73
2023/12/05 12:07:29;;;;;;;6.03;4.35;;;8.70;93.00;;;;;;5069903;28;20465;-73
2023/12/05 12:09:55;;;;;;;8.07;5.00;;;8.60;94.10;;;;;;5071407;28;20389;-74
2023/12/05 12:12:21;;;;;;;5.18;4.00;;;8.60;94.00;;;;;;5054579;28;20484;-75
2023/12/05 12:14:47;;;;;;;5.65;4.68;;;8.70;94.30;;;;;;5053990;28;20447;-75
2023/12/05 12:17:13;;;;;;;4.57;3.90;;;8.80;93.30;;;;;;5050962;28;20392;-76
2023/12/05 12:19:39;;;;;;;5.43;4.07;;;8.70;92.90;;;;;;5051332;28;20448;-76
2023/12/05 12:22:09;;;;;;;7.80;4.10;;;8.80;92.50;;;;;;5051898;28;20722;-75
2023/12/05 12:24:36;;;;;;;6.65;4.10;;;8.80;94.50;;;;;;5051137;28;20381;-75
2023/12/05 12:27:03;;;;;;;5.40;3.22;;;8.80;93.60;;;;;;5050724;28;20397;-74
2023/12/05 12:29:29;;;;;;;4.18;3.10;;;8.80;93.10;;;;;;5050722;28;20880;-74
2023/12/05 12:32:06;;;;;;;5.88;3.10;;;8.80;93.10;;;;;;5050168;28;20405;-75
2023/12/05 12:34:32;;;;;;;3.88;3.17;;;8.80;93.10;;;;;;5050840;28;20381;-74
2023/12/05 12:36:58;;;;;;;6.90;3.22;;;8.70;93.90;;;;;;5054915;28;20495;-74
2023/12/05 12:39:25;;;;;;;4.28;3.30;;;8.60;94.40;;;;;;5054872;28;20409;-76
2023/12/05 12:41:51;;;;;;;6.40;3.60;;;8.60;95.70;;;;;;5054694;28;20401;-76
2023/12/05 12:44:18;;;;;;;6.45;3.05;;;8.60;95.70;;;;;;5037611;28;20397;-75